Terminal Aerodrome Forecast
Issued by NWS Flagstaff, AZ

Home | Current Version | Previous Version | Text Only | Print | Product List | Glossary On
Versions: 1 2 3 4 5 6 7 8 9 10 11 12 13 14 15 16 17 18
000
FTUS45 KFGZ 252300
TAFFLG
TAF
KFLG 252328Z 2600/2624 26010G20KT P6SM SCT030 SCT050
      TEMPO 2600/2602 3SM -SHSN SCT018 BKN025
     FM260200 25005KT P6SM SCT030
     FM261200 VRB03KT P6SM FEW030
     FM261800 23007KT P6SM SCT040=

USA.gov is the U.S. government's official web portal to all federal, state and local government web resources and services.